Time;durP1;ratioP1;P1;durP2;ratioP2;P2;SDS_P1;SDS_P2;PMS_P1;PMS_P2;Temp;Humidity;BMP_temperature;BMP_pressure;BME280_temperature;BME280_humidity;BME280_pressure;Samples;Min_cycle;Max_cycle;Signal;HPM_P1;HPM_P2
2021/08/25 00:02:12;;;;;;;5.05;3.42;;;;;;;11.48;100.00;101727.44;2614828;36;20068;-56
2021/08/25 00:04:40;;;;;;;5.75;3.85;;;;;;;11.38;100.00;101725.31;2615567;31;20037;-54
2021/08/25 00:07:08;;;;;;;6.20;3.03;;;;;;;11.42;100.00;101727.19;2615540;31;20542;-52
2021/08/25 00:09:45;;;;;;;6.07;3.58;;;;;;;11.15;100.00;101724.41;2614883;36;20035;-53
2021/08/25 00:12:12;;;;;;;4.80;3.45;;;;;;;11.10;100.00;101720.81;2614905;36;20026;-56
2021/08/25 00:14:41;;;;;;;6.18;3.15;;;;;;;11.05;100.00;101719.75;2615190;31;20023;-54
2021/08/25 00:17:09;;;;;;;5.63;3.30;;;;;;;11.17;100.00;101719.34;2613984;36;20030;-42
2021/08/25 00:19:36;;;;;;;7.05;3.40;;;;;;;10.93;100.00;101712.44;2614441;36;20042;-43
2021/08/25 00:22:04;;;;;;;5.68;3.28;;;;;;;11.13;100.00;101707.22;2614716;31;20042;-45
2021/08/25 00:24:31;;;;;;;4.40;3.00;;;;;;;11.18;100.00;101711.72;2614492;31;20046;-42
2021/08/25 00:26:58;;;;;;;7.00;3.53;;;;;;;10.91;100.00;101706.38;2614361;31;20034;-42
2021/08/25 00:29:25;;;;;;;5.00;3.17;;;;;;;10.78;100.00;101703.25;2614128;36;20035;-42
2021/08/25 00:31:52;;;;;;;7.05;3.58;;;;;;;10.70;100.00;101700.38;2614246;31;20046;-42
2021/08/25 00:34:20;;;;;;;8.32;3.80;;;;;;;10.70;100.00;101687.56;2614454;31;20124;-44
2021/08/25 00:36:47;;;;;;;6.13;3.55;;;;;;;10.67;100.00;101695.09;2613755;36;20034;-42
2021/08/25 00:39:14;;;;;;;10.63;4.03;;;;;;;10.65;100.00;101689.06;2614499;31;20064;-42
2021/08/25 00:41:41;;;;;;;7.72;3.25;;;;;;;10.58;100.00;101689.59;2614288;31;20026;-45
2021/08/25 00:44:08;;;;;;;5.63;3.28;;;;;;;10.71;100.00;101685.03;2614406;31;20077;-42
2021/08/25 00:46:36;;;;;;;4.88;3.03;;;;;;;10.62;100.00;101676.97;2614310;31;20038;-44
2021/08/25 00:49:04;;;;;;;6.55;3.58;;;;;;;11.02;100.00;101677.72;2614570;31;20034;-43
2021/08/25 00:51:31;;;;;;;8.93;3.75;;;;;;;10.72;100.00;101670.53;2614527;31;20031;-42
2021/08/25 00:54:00;;;;;;;4.75;3.30;;;;;;;10.60;100.00;101678.63;2614285;36;20038;-44
2021/08/25 00:56:27;;;;;;;6.60;3.28;;;;;;;10.59;100.00;101684.56;2614506;31;20492;-47
2021/08/25 00:58:55;;;;;;;4.80;2.80;;;;;;;10.79;100.00;101674.25;2613789;36;20030;-43
2021/08/25 01:01:42;;;;;;;5.28;3.10;;;;;;;10.48;100.00;101674.66;2614446;36;20065;-42
2021/08/25 01:04:29;;;;;;;5.60;3.65;;;;;;;10.16;100.00;101669.00;2614252;36;20034;-42
2021/08/25 01:06:57;;;;;;;8.52;3.50;;;;;;;10.04;100.00;101676.19;2578725;31;2004395;-43
2021/08/25 01:09:24;;;;;;;5.95;3.50;;;;;;;9.99;100.00;101675.97;2613736;31;20037;-46
2021/08/25 01:11:53;;;;;;;7.07;3.83;;;;;;;9.96;100.00;101675.84;2614403;31;20086;-45
2021/08/25 01:14:20;;;;;;;6.20;3.22;;;;;;;9.80;100.00;101670.84;2614060;36;20035;-45
2021/08/25 01:16:49;;;;;;;7.05;3.50;;;;;;;9.92;100.00;101668.81;2615134;31;20034;-42
2021/08/25 01:19:17;;;;;;;6.55;3.55;;;;;;;10.56;100.00;101660.50;2615207;36;20609;-42
2021/08/25 01:21:47;;;;;;;5.63;3.30;;;;;;;10.24;100.00;101661.66;2615756;31;20042;-45
2021/08/25 01:24:16;;;;;;;6.72;3.28;;;;;;;10.62;100.00;101658.19;2616442;31;20034;-43
2021/08/25 01:26:50;;;;;;;6.93;3.85;;;;;;;10.31;100.00;101663.72;2616089;31;20039;-43
2021/08/25 01:29:28;;;;;;;5.53;3.40;;;;;;;9.97;100.00;101659.66;2582124;31;2004776;-43
2021/08/25 01:31:55;;;;;;;5.07;3.42;;;;;;;10.18;100.00;101647.81;2617275;31;20045;-43
2021/08/25 01:34:23;;;;;;;5.75;3.17;;;;;;;10.26;100.00;101649.84;2617307;31;20468;-42
2021/08/25 01:36:54;;;;;;;5.53;3.25;;;;;;;9.69;100.00;101643.09;2616077;31;20023;-44
2021/08/25 01:39:22;;;;;;;6.65;3.92;;;;;;;9.49;100.00;101636.22;2615877;36;20482;-44
2021/08/25 01:41:50;;;;;;;6.20;3.72;;;;;;;9.37;100.00;101631.44;2616417;31;20594;-42
2021/08/25 01:44:17;;;;;;;5.05;3.30;;;;;;;9.29;100.00;101631.88;2615907;36;20042;-43
2021/08/25 01:46:44;;;;;;;7.90;3.67;;;;;;;9.27;100.00;101629.25;2617757;36;20042;-42
2021/08/25 01:49:13;;;;;;;7.03;3.45;;;;;;;9.24;100.00;101625.69;2618452;31;20490;-43
2021/08/25 01:51:43;;;;;;;5.47;3.40;;;;;;;9.24;100.00;101631.66;2617900;31;20030;-42
2021/08/25 01:54:12;;;;;;;6.00;4.00;;;;;;;9.23;100.00;101631.59;2616543;36;20061;-42
2021/08/25 01:56:41;;;;;;;5.00;3.10;;;;;;;9.10;100.00;101623.34;2615695;36;20041;-43
2021/08/25 01:59:09;;;;;;;5.70;3.85;;;;;;;9.12;100.00;101624.31;2616376;31;20061;-43
2021/08/25 02:01:36;;;;;;;5.43;3.88;;;;;;;9.41;100.00;101623.09;2615914;31;20038;-44
2021/08/25 02:04:03;;;;;;;7.50;4.40;;;;;;;9.50;100.00;101621.75;2616079;31;20031;-47
2021/08/25 02:06:30;;;;;;;8.77;4.32;;;;;;;9.30;100.00;101626.84;2615743;31;20033;-43
2021/08/25 02:08:58;;;;;;;5.72;3.80;;;;;;;9.21;100.00;101623.00;2616120;31;20026;-43
2021/08/25 02:11:25;;;;;;;7.25;3.88;;;;;;;9.28;100.00;101615.66;2616938;36;20435;-43
2021/08/25 02:13:53;;;;;;;7.50;3.35;;;;;;;9.75;100.00;101614.34;2616974;31;20030;-43
2021/08/25 02:16:20;;;;;;;6.63;3.65;;;;;;;9.40;100.00;101615.38;2617484;31;20195;-43
2021/08/25 02:18:48;;;;;;;4.82;3.33;;;;;;;9.61;100.00;101613.78;2616581;31;20046;-43
2021/08/25 02:21:15;;;;;;;5.75;3.55;;;;;;;9.10;100.00;101609.72;2615677;36;20038;-49
2021/08/25 02:23:42;;;;;;;7.70;3.95;;;;;;;8.91;100.00;101603.75;2615727;36;20446;-45
2021/08/25 02:26:16;;;;;;;6.50;3.33;;;;;;;8.81;100.00;101603.25;2615330;36;20046;-43
2021/08/25 02:28:45;;;;;;;6.65;3.90;;;;;;;8.71;100.00;101601.94;2616400;31;20033;-46
2021/08/25 02:31:12;;;;;;;6.40;4.47;;;;;;;8.72;100.00;101593.47;2617372;31;20031;-43
2021/08/25 02:33:40;;;;;;;5.63;3.60;;;;;;;9.09;100.00;101590.09;2619701;36;20045;-43
2021/08/25 02:36:09;;;;;;;6.45;4.05;;;;;;;8.90;100.00;101588.34;2616012;36;20042;-45
2021/08/25 02:38:37;;;;;;;7.50;3.92;;;;;;;9.18;100.00;101582.84;2616362;36;20483;-43
2021/08/25 02:41:07;;;;;;;5.97;3.58;;;;;;;9.43;100.00;101583.16;2616401;31;20031;-45
2021/08/25 02:43:34;;;;;;;5.35;3.58;;;;;;;8.91;100.00;101577.31;2614583;31;20039;-45
2021/08/25 02:46:02;;;;;;;6.85;3.70;;;;;;;8.74;100.00;101581.66;2614756;36;20050;-45
2021/08/25 02:48:30;;;;;;;6.28;3.45;;;;;;;8.71;100.00;101573.84;2616385;31;20133;-48
2021/08/25 02:50:57;;;;;;;6.75;3.88;;;;;;;8.77;100.00;101573.25;2616436;31;20477;-45
2021/08/25 02:53:24;;;;;;;6.68;4.25;;;;;;;8.79;100.00;101566.56;2614598;36;20031;-45
2021/08/25 02:55:51;;;;;;;7.97;3.80;;;;;;;8.60;100.00;101568.25;2616009;31;20445;-45
2021/08/25 02:58:18;;;;;;;6.32;3.70;;;;;;;8.81;100.00;101564.94;2616019;31;20038;-44
2021/08/25 03:00:45;;;;;;;6.70;3.90;;;;;;;8.47;100.00;101563.34;2614813;36;20046;-44
2021/08/25 03:03:13;;;;;;;8.30;4.43;;;;;;;8.51;100.00;101565.25;2614205;36;20036;-45
2021/08/25 03:05:40;;;;;;;5.75;3.65;;;;;;;8.39;100.00;101559.53;2614923;36;20030;-45
2021/08/25 03:08:07;;;;;;;7.60;4.97;;;;;;;8.31;100.00;101561.69;2614286;36;20677;-47
2021/08/25 03:10:34;;;;;;;6.38;3.88;;;;;;;8.33;100.00;101560.09;2614498;31;20606;-44
2021/08/25 03:13:02;;;;;;;9.20;3.97;;;;;;;8.33;100.00;101549.88;2615328;31;20030;-46
2021/08/25 03:15:29;;;;;;;6.72;4.03;;;;;;;8.80;100.00;101550.44;2614718;31;20555;-44
2021/08/25 03:17:56;;;;;;;5.55;4.05;;;;;;;8.98;100.00;101542.75;2614395;36;20449;-47
2021/08/25 03:20:23;;;;;;;7.50;4.28;;;;;;;8.57;100.00;101547.66;2615918;31;20034;-46
2021/08/25 03:22:50;;;;;;;8.23;4.13;;;;;;;8.29;100.00;101542.00;2614711;36;20034;-44
2021/08/25 03:25:18;;;;;;;8.68;4.10;;;;;;;8.62;100.00;101540.22;2614929;31;20038;-46
2021/08/25 03:27:45;;;;;;;5.63;3.65;;;;;;;8.75;100.00;101531.47;2614432;36;20034;-45
2021/08/25 03:30:12;;;;;;;8.60;4.03;;;;;;;8.33;100.00;101531.16;2614550;36;20030;-43
2021/08/25 03:32:39;;;;;;;8.43;4.25;;;;;;;8.14;100.00;101521.72;2616095;31;20470;-43
2021/08/25 03:35:07;;;;;;;7.95;4.45;;;;;;;8.25;100.00;101525.66;2615399;31;20030;-45
2021/08/25 03:37:34;;;;;;;7.97;4.22;;;;;;;8.34;100.00;101523.56;2616151;31;20037;-43
2021/08/25 03:40:01;;;;;;;6.93;4.78;;;;;;;8.64;100.00;101521.63;2615157;31;20034;-44
2021/08/25 03:42:28;;;;;;;6.55;4.13;;;;;;;8.26;100.00;101524.84;2614796;36;20030;-43
2021/08/25 03:44:55;;;;;;;6.22;4.07;;;;;;;8.01;100.00;101525.34;2615267;31;20057;-46
2021/08/25 03:47:23;;;;;;;7.75;4.53;;;;;;;7.99;100.00;101520.97;2615675;31;20057;-43
2021/08/25 03:49:50;;;;;;;8.02;4.50;;;;;;;7.96;100.00;101516.59;2614066;36;20594;-46
2021/08/25 03:52:17;;;;;;;7.35;4.90;;;;;;;8.04;100.00;101511.84;2614348;36;20038;-44
2021/08/25 03:54:45;;;;;;;6.50;3.92;;;;;;;8.08;100.00;101519.72;2615279;31;20026;-45
2021/08/25 03:57:12;;;;;;;9.55;4.35;;;;;;;8.23;100.00;101518.72;2613798;36;20731;-44
2021/08/25 03:59:39;;;;;;;8.43;4.30;;;;;;;8.26;100.00;101519.75;2614120;36;20022;-46
2021/08/25 04:02:06;;;;;;;9.07;4.60;;;;;;;8.32;100.00;101520.06;2614397;36;20458;-44
2021/08/25 04:04:33;;;;;;;10.73;4.70;;;;;;;8.04;100.00;101522.97;2614097;31;20022;-44
2021/08/25 04:07:00;;;;;;;9.75;4.60;;;;;;;7.89;100.00;101515.41;2615228;31;20057;-46
2021/08/25 04:09:27;;;;;;;7.38;4.68;;;;;;;7.94;100.00;101518.19;2614806;36;20046;-45
2021/08/25 04:11:54;;;;;;;7.63;4.00;;;;;;;7.99;100.00;101509.09;2615483;36;20061;-45
2021/08/25 04:14:22;;;;;;;9.45;5.28;;;;;;;7.85;100.00;101517.72;2617949;31;20038;-50
2021/08/25 04:16:49;;;;;;;8.13;4.82;;;;;;;7.76;100.00;101520.69;2615820;31;20030;-44
2021/08/25 04:19:16;;;;;;;9.63;4.93;;;;;;;7.71;100.00;101513.63;2615351;36;20042;-44
2021/08/25 04:21:43;;;;;;;9.07;5.03;;;;;;;7.96;100.00;101511.50;2616141;31;20077;-44
2021/08/25 04:24:10;;;;;;;8.63;4.97;;;;;;;7.80;100.00;101516.63;2614450;31;20065;-45
2021/08/25 04:26:37;;;;;;;8.77;5.18;;;;;;;7.79;100.00;101517.44;2614751;31;20049;-46
2021/08/25 04:29:04;;;;;;;9.88;5.00;;;;;;;8.12;100.00;101516.53;2614055;36;20038;-42
2021/08/25 04:31:31;;;;;;;8.75;5.30;;;;;;;7.96;100.00;101521.69;2616300;31;20042;-43
2021/08/25 04:33:58;;;;;;;10.80;6.07;;;;;;;8.15;100.00;101519.25;2615168;36;20454;-43
2021/08/25 04:36:25;;;;;;;9.07;5.32;;;;;;;8.33;100.00;101518.41;2614102;31;20034;-46
2021/08/25 04:38:52;;;;;;;12.30;5.93;;;;;;;8.60;100.00;101527.41;2614183;31;20073;-46
2021/08/25 04:41:19;;;;;;;10.05;5.95;;;;;;;8.58;100.00;101517.91;2614474;31;20030;-46
2021/08/25 04:43:46;;;;;;;9.02;4.80;;;;;;;8.62;100.00;101513.00;2614096;31;20022;-47
2021/08/25 04:46:17;;;;;;;9.23;5.13;;;;;;;8.77;100.00;101517.06;2614940;31;20435;-49
2021/08/25 04:48:45;;;;;;;15.05;6.63;;;;;;;8.59;100.00;101512.84;2613874;36;20558;-47
2021/08/25 04:51:12;;;;;;;12.80;6.82;;;;;;;8.91;100.00;101516.03;2613821;31;20057;-44
2021/08/25 04:53:40;;;;;;;12.23;5.78;;;;;;;8.60;100.00;101513.75;2614547;31;20022;-44
2021/08/25 04:56:07;;;;;;;8.73;5.80;;;;;;;8.57;100.00;101513.59;2614125;36;20031;-44
2021/08/25 04:58:35;;;;;;;9.55;5.80;;;;;;;8.64;100.00;101500.31;2614300;36;20038;-43
2021/08/25 05:01:06;;;;;;;9.60;6.28;;;;;;;8.57;100.00;101496.59;2614908;36;20447;-45
2021/08/25 05:03:34;;;;;;;10.35;6.65;;;;;;;8.49;100.00;101495.38;2614967;31;20432;-44
2021/08/25 05:06:09;;;;;;;10.80;6.40;;;;;;;8.56;100.00;101494.88;2614680;31;20206;-46
2021/08/25 05:08:38;;;;;;;12.32;5.93;;;;;;;8.96;100.00;101490.69;2614161;36;20038;-45
2021/08/25 05:11:07;;;;;;;11.95;5.82;;;;;;;8.98;100.00;101486.53;2614357;36;20030;-47
2021/08/25 05:13:34;;;;;;;8.75;5.60;;;;;;;9.09;100.00;101488.75;2614487;31;20023;-43
2021/08/25 05:16:01;;;;;;;13.93;6.18;;;;;;;9.06;100.00;101473.31;2614346;36;20037;-46
2021/08/25 05:18:28;;;;;;;14.23;7.05;;;;;;;9.10;100.00;101470.06;2613984;36;20035;-44
2021/08/25 05:20:57;;;;;;;13.98;6.90;;;;;;;9.07;100.00;101472.50;2614344;36;20470;-44
2021/08/25 05:23:24;;;;;;;12.23;6.95;;;;;;;9.02;100.00;101463.75;2614313;31;20065;-43
2021/08/25 05:25:51;;;;;;;12.80;7.40;;;;;;;9.03;100.00;101456.97;2614920;31;20594;-43
2021/08/25 05:28:18;;;;;;;11.18;6.47;;;;;;;9.28;100.00;101452.09;2614904;31;20023;-43
2021/08/25 05:30:45;;;;;;;10.85;6.20;;;;;;;9.28;100.00;101458.91;2616022;31;20042;-44
2021/08/25 05:33:12;;;;;;;11.65;6.45;;;;;;;9.62;100.00;101453.53;2614485;36;20030;-47
2021/08/25 05:35:39;;;;;;;12.00;6.60;;;;;;;9.84;100.00;101457.84;2614507;31;20057;-45
2021/08/25 05:38:12;;;;;;;11.73;6.93;;;;;;;9.59;100.00;101461.09;2615467;31;20483;-46
2021/08/25 05:40:41;;;;;;;11.43;6.63;;;;;;;9.84;100.00;101465.50;2614661;36;20042;-43
2021/08/25 05:43:08;;;;;;;10.07;5.80;;;;;;;10.19;100.00;101456.72;2613973;36;20034;-46
2021/08/25 05:45:36;;;;;;;12.90;6.28;;;;;;;9.90;100.00;101458.97;2615047;31;20480;-45
2021/08/25 05:48:04;;;;;;;10.60;6.97;;;;;;;9.90;100.00;101455.56;2615030;36;20034;-43
2021/08/25 05:50:31;;;;;;;9.60;6.03;;;;;;;10.09;100.00;101462.28;2616237;31;20034;-44
2021/08/25 05:52:58;;;;;;;10.27;6.07;;;;;;;10.53;100.00;101456.34;2615572;31;20037;-45
2021/08/25 05:55:25;;;;;;;9.35;5.75;;;;;;;10.78;100.00;101458.16;2615976;31;20039;-43
2021/08/25 05:57:53;;;;;;;8.32;5.47;;;;;;;11.06;100.00;101460.03;2614820;36;20096;-43
2021/08/25 06:00:20;;;;;;;9.48;5.40;;;;;;;11.00;100.00;101454.72;2614428;36;20038;-44
2021/08/25 06:02:50;;;;;;;7.70;5.10;;;;;;;11.34;100.00;101454.19;2615534;36;20042;-46
2021/08/25 06:05:18;;;;;;;7.72;4.88;;;;;;;11.69;100.00;101450.28;2616032;31;20662;-50
2021/08/25 06:07:46;;;;;;;10.43;5.22;;;;;;;12.06;100.00;101441.22;2616223;31;20087;-43
2021/08/25 06:10:13;;;;;;;7.68;4.68;;;;;;;12.40;100.00;101438.00;2615728;31;20562;-43
2021/08/25 06:12:40;;;;;;;10.70;4.55;;;;;;;12.37;100.00;101439.59;2614812;36;20035;-45
2021/08/25 06:15:07;;;;;;;8.23;4.70;;;;;;;12.51;100.00;101445.16;2615832;36;20431;-45
2021/08/25 06:17:35;;;;;;;8.88;4.25;;;;;;;12.63;100.00;101432.69;2615563;31;20034;-48
2021/08/25 06:20:03;;;;;;;7.78;3.83;;;;;;;12.90;99.31;101430.91;2615107;36;20038;-43
2021/08/25 06:22:31;;;;;;;6.40;4.28;;;;;;;13.18;98.84;101431.66;2615139;36;20057;-43
2021/08/25 06:24:59;;;;;;;7.25;4.43;;;;;;;13.34;100.00;101426.09;2615216;36;20031;-42
2021/08/25 06:27:26;;;;;;;8.38;4.30;;;;;;;13.30;100.00;101432.00;2615350;31;20030;-43
2021/08/25 06:29:53;;;;;;;7.20;3.67;;;;;;;13.39;100.00;101432.25;2614883;36;20657;-46
2021/08/25 06:32:21;;;;;;;6.57;3.92;;;;;;;13.67;95.37;101430.38;2616104;36;20140;-43
2021/08/25 06:34:48;;;;;;;5.68;4.15;;;;;;;14.13;92.85;101431.47;2616083;31;20466;-44
2021/08/25 06:37:15;;;;;;;6.78;4.15;;;;;;;14.26;92.83;101421.47;2616630;36;20042;-44
2021/08/25 06:39:42;;;;;;;7.28;4.05;;;;;;;14.49;93.42;101424.59;2615459;36;20035;-44
2021/08/25 06:42:09;;;;;;;6.05;4.20;;;;;;;14.71;92.44;101420.75;2616022;31;20038;-46
2021/08/25 06:44:36;;;;;;;7.60;4.13;;;;;;;14.81;92.17;101424.41;2614872;36;20039;-43
2021/08/25 06:47:04;;;;;;;7.13;3.78;;;;;;;15.33;89.13;101421.94;2616410;36;20574;-48
2021/08/25 06:49:31;;;;;;;10.13;4.22;;;;;;;15.75;85.21;101425.28;2615548;31;20038;-43
2021/08/25 06:51:58;;;;;;;8.48;4.40;;;;;;;16.07;82.30;101430.06;2615438;36;20458;-44
2021/08/25 06:54:25;;;;;;;6.13;3.47;;;;;;;16.70;78.02;101429.22;2615555;31;20530;-43
2021/08/25 06:56:52;;;;;;;7.55;3.42;;;;;;;16.99;77.44;101419.25;2615099;31;20042;-49
2021/08/25 06:59:19;;;;;;;5.57;3.35;;;;;;;17.70;72.79;101426.00;2615509;31;20511;-49
2021/08/25 07:01:46;;;;;;;5.07;3.67;;;;;;;17.51;71.00;101419.75;2615259;36;20610;-43
2021/08/25 07:04:14;;;;;;;4.40;2.72;;;;;;;18.29;71.26;101419.50;2614805;36;20044;-44
2021/08/25 07:06:41;;;;;;;8.73;3.40;;;;;;;18.11;67.60;101422.84;2615079;31;20065;-45
2021/08/25 07:09:08;;;;;;;7.50;3.40;;;;;;;18.04;70.14;101419.34;2615044;36;20081;-43
2021/08/25 07:11:35;;;;;;;4.93;3.33;;;;;;;17.51;70.68;101417.16;2615595;31;20057;-45
2021/08/25 07:14:03;;;;;;;5.50;2.75;;;;;;;17.53;74.81;101415.47;2614817;31;20037;-43
2021/08/25 07:16:36;;;;;;;7.70;3.47;;;;;;;17.56;73.40;101415.50;2614780;36;20053;-43
2021/08/25 07:19:04;;;;;;;7.05;3.40;;;;;;;17.22;72.77;101403.09;2614822;36;20034;-43
2021/08/25 07:21:32;;;;;;;8.93;3.33;;;;;;;17.31;72.58;101403.19;2614524;36;20034;-43
2021/08/25 07:24:00;;;;;;;6.05;3.58;;;;;;;17.14;72.17;101396.97;2615201;36;20037;-44
2021/08/25 07:26:27;;;;;;;8.63;3.55;;;;;;;16.72;76.08;101387.88;2615686;31;20090;-46
2021/08/25 07:28:54;;;;;;;6.18;3.80;;;;;;;16.96;73.94;101389.88;2614604;36;20026;-44
2021/08/25 07:31:21;;;;;;;7.53;3.95;;;;;;;17.17;75.21;101387.53;2614402;36;20065;-44
2021/08/25 07:33:50;;;;;;;8.52;4.40;;;;;;;17.30;74.87;101386.78;2615129;36;20035;-45
2021/08/25 07:36:18;;;;;;;9.80;3.88;;;;;;;17.25;74.33;101379.84;2616213;31;20042;-44
2021/08/25 07:38:45;;;;;;;7.18;3.80;;;;;;;17.80;72.28;101382.91;2614729;36;20018;-44
2021/08/25 07:41:12;;;;;;;5.47;3.50;;;;;;;17.87;73.65;101374.31;2615140;36;20452;-43
2021/08/25 07:43:39;;;;;;;6.65;3.45;;;;;;;17.90;73.19;101376.94;2615419;31;20042;-43
2021/08/25 07:46:06;;;;;;;5.50;2.97;;;;;;;18.35;69.70;101379.75;2614586;31;20034;-44
2021/08/25 07:48:34;;;;;;;5.72;3.53;;;;;;;18.13;71.74;101371.88;2614615;31;20034;-45
2021/08/25 07:51:08;;;;;;;5.10;2.85;;;;;;;18.27;66.88;101375.41;2615421;36;20464;-45
2021/08/25 07:53:36;;;;;;;5.55;3.22;;;;;;;18.42;68.53;101379.81;2614492;36;20037;-44
2021/08/25 07:56:04;;;;;;;6.88;3.10;;;;;;;18.38;66.01;101377.19;2614651;36;20030;-48
2021/08/25 07:58:31;;;;;;;5.78;3.00;;;;;;;17.94;68.43;101377.81;2614332;36;20031;-47
2021/08/25 08:01:11;;;;;;;4.68;3.25;;;;;;;18.06;64.91;101365.78;2614682;36;20038;-44
2021/08/25 08:03:39;;;;;;;5.30;2.72;;;;;;;17.99;65.75;101376.13;2615445;31;20598;-43
2021/08/25 08:06:06;;;;;;;5.78;2.85;;;;;;;17.62;65.25;101367.19;2615076;31;20054;-43
2021/08/25 08:08:33;;;;;;;5.55;3.33;;;;;;;17.75;65.72;101369.94;2614777;36;20432;-43
2021/08/25 08:11:00;;;;;;;6.22;2.95;;;;;;;17.83;64.62;101359.59;2616142;31;20041;-46
2021/08/25 08:13:27;;;;;;;7.30;3.35;;;;;;;17.78;67.38;101358.69;2616145;31;20030;-45
2021/08/25 08:15:55;;;;;;;4.63;2.53;;;;;;;17.86;67.85;101361.34;2614567;36;20038;-46
2021/08/25 08:18:31;;;;;;;4.60;2.70;;;;;;;18.15;66.24;101356.34;2614789;36;20041;-45
2021/08/25 08:20:59;;;;;;;8.55;2.80;;;;;;;18.57;63.38;101353.91;2614552;36;20042;-43
2021/08/25 08:23:27;;;;;;;6.57;3.15;;;;;;;18.58;62.48;101352.22;2616446;31;20042;-43
2021/08/25 08:25:56;;;;;;;5.68;3.10;;;;;;;18.62;64.52;101340.97;2615013;36;20458;-47
2021/08/25 08:28:23;;;;;;;4.63;3.20;;;;;;;19.05;63.03;101335.91;2615210;31;20046;-44
2021/08/25 08:30:50;;;;;;;7.30;2.90;;;;;;;19.32;64.11;101335.94;2614594;36;20022;-43
2021/08/25 08:33:18;;;;;;;5.60;2.78;;;;;;;19.33;59.58;101331.59;2614441;36;20037;-44
2021/08/25 08:35:45;;;;;;;7.25;3.05;;;;;;;19.34;62.08;101334.19;2614395;36;20026;-43
2021/08/25 08:38:12;;;;;;;5.55;2.60;;;;;;;19.53;57.96;101337.63;2614531;31;20060;-46
2021/08/25 08:40:39;;;;;;;4.65;2.40;;;;;;;19.61;57.29;101335.06;2614800;31;20053;-43
2021/08/25 08:43:08;;;;;;;7.93;3.10;;;;;;;19.72;58.27;101335.06;2614138;36;20057;-45
2021/08/25 08:45:41;;;;;;;4.97;2.67;;;;;;;20.38;55.60;101327.03;2614015;36;20394;-45
2021/08/25 08:48:10;;;;;;;5.47;2.92;;;;;;;20.19;57.00;101328.84;2614129;31;20038;-45
2021/08/25 08:50:39;;;;;;;5.75;2.50;;;;;;;19.62;57.13;101323.81;2614553;31;20057;-43
2021/08/25 08:53:08;;;;;;;7.15;3.30;;;;;;;19.96;56.56;101314.19;2614365;31;20026;-44
2021/08/25 08:55:36;;;;;;;13.18;3.72;;;;;;;20.06;56.52;101317.66;2614465;31;20034;-44
2021/08/25 08:58:04;;;;;;;3.40;2.67;;;;;;;20.89;55.60;101317.25;2614954;31;20445;-43
2021/08/25 09:00:32;;;;;;;4.47;2.63;;;;;;;20.93;54.19;101314.59;2615294;36;20041;-43
2021/08/25 09:02:59;;;;;;;4.75;3.25;;;;;;;21.32;53.14;101323.91;2615468;36;20030;-44
2021/08/25 09:05:34;;;;;;;3.38;2.15;;;;;;;20.80;53.00;101310.38;2614889;36;20037;-45
2021/08/25 09:08:04;;;;;;;6.03;2.90;;;;;;;21.33;54.93;101307.38;2614599;36;20051;-45
2021/08/25 09:10:34;;;;;;;3.30;2.50;;;;;;;21.18;53.43;101306.63;2615299;31;20027;-43
2021/08/25 09:13:09;;;;;;;4.97;2.53;;;;;;;21.34;53.83;101298.69;2614388;36;20034;-44
2021/08/25 09:15:39;;;;;;;4.55;2.67;;;;;;;21.44;50.74;101302.06;2614448;31;20046;-45
2021/08/25 09:18:10;;;;;;;6.35;3.22;;;;;;;21.40;53.61;101289.97;2614599;31;20027;-45
2021/08/25 09:20:46;;;;;;;4.97;2.50;;;;;;;21.86;50.60;101299.88;2614034;36;20030;-43
2021/08/25 09:23:19;;;;;;;5.20;2.53;;;;;;;21.75;50.00;101286.13;2614728;31;20035;-44
2021/08/25 09:25:48;;;;;;;4.10;2.55;;;;;;;21.50;51.77;101280.31;2614350;36;20042;-43
2021/08/25 09:28:19;;;;;;;4.70;2.80;;;;;;;21.54;49.85;101280.25;2615066;31;20455;-43
2021/08/25 09:30:49;;;;;;;4.65;3.10;;;;;;;21.72;49.79;101268.75;2614482;36;20613;-46
2021/08/25 09:33:22;;;;;;;5.18;2.60;;;;;;;21.07;50.88;101259.81;2615483;31;20034;-43
2021/08/25 09:35:49;;;;;;;4.15;2.72;;;;;;;21.63;52.06;101260.16;2614087;36;20039;-46
2021/08/25 09:38:20;;;;;;;3.33;2.75;;;;;;;21.14;51.33;101255.44;2613730;36;20023;-43
2021/08/25 09:40:50;;;;;;;4.60;3.28;;;;;;;20.79;51.42;101249.63;2614663;31;20038;-49
2021/08/25 09:43:39;;;;;;;4.47;3.03;;;;;;;20.87;55.85;101249.56;2614037;36;20597;-44
2021/08/25 09:46:13;;;;;;;4.40;2.65;;;;;;;20.82;55.66;101254.81;2578371;36;2004604;-45
2021/08/25 09:48:49;;;;;;;3.50;2.83;;;;;;;20.76;54.90;101247.06;2615096;31;20108;-45
2021/08/25 09:51:21;;;;;;;3.65;2.65;;;;;;;20.82;55.09;101248.75;2615436;31;20034;-44
2021/08/25 09:53:51;;;;;;;5.93;3.20;;;;;;;21.00;56.57;101246.00;2614973;36;20057;-44
2021/08/25 09:56:26;;;;;;;5.10;3.03;;;;;;;21.39;53.96;101241.31;2614759;36;20143;-45
2021/08/25 09:58:54;;;;;;;8.35;3.28;;;;;;;21.06;56.93;101239.84;2579475;31;2004662;-43
2021/08/25 10:01:22;;;;;;;6.03;3.33;;;;;;;21.18;55.12;101234.56;2614518;36;20035;-47
2021/08/25 10:03:50;;;;;;;9.25;3.00;;;;;;;20.93;54.69;101233.03;2616536;31;20030;-43
2021/08/25 10:06:19;;;;;;;3.75;2.78;;;;;;;20.31;56.90;101223.03;2614548;31;20049;-44
2021/08/25 10:08:46;;;;;;;8.02;3.22;;;;;;;20.25;55.07;101223.06;2614894;31;20034;-48
2021/08/25 10:11:15;;;;;;;6.35;3.25;;;;;;;20.32;57.25;101218.69;2614612;36;20034;-43
2021/08/25 10:13:43;;;;;;;5.07;2.42;;;;;;;20.01;56.17;101218.88;2614750;36;20030;-45
2021/08/25 10:16:31;;;;;;;3.03;2.58;;;;;;;19.71;58.79;101212.03;2614939;36;20431;-49
2021/08/25 10:19:24;;;;;;;3.22;2.55;;;;;;;19.48;58.88;101208.63;2579052;31;2004389;-44
2021/08/25 10:21:52;;;;;;;5.10;3.13;;;;;;;19.52;59.74;101203.41;2578811;36;2004792;-44
2021/08/25 10:24:20;;;;;;;5.00;3.17;;;;;;;19.33;60.79;101199.16;2615733;31;20597;-47
2021/08/25 10:26:56;;;;;;;4.00;3.20;;;;;;;19.37;61.02;101195.69;2615840;31;20061;-45
2021/08/25 10:29:25;;;;;;;5.13;3.28;;;;;;;19.28;59.81;101185.31;2580220;31;2004570;-48
2021/08/25 10:31:52;;;;;;;4.88;2.78;;;;;;;19.54;63.67;101185.22;2616608;31;20034;-47
2021/08/25 10:34:38;;;;;;;4.72;3.08;;;;;;;19.51;61.73;101185.25;2615082;36;20039;-46
2021/08/25 10:37:11;;;;;;;6.95;3.45;;;;;;;19.59;59.01;101173.94;2578801;36;2004236;-43
2021/08/25 10:39:42;;;;;;;6.40;3.15;;;;;;;19.36;60.04;101173.16;2615248;31;20035;-45
2021/08/25 10:42:09;;;;;;;4.95;3.40;;;;;;;19.28;61.42;101162.78;2615371;31;20034;-44
2021/08/25 10:44:49;;;;;;;5.47;3.20;;;;;;;19.19;60.04;101164.56;2614992;36;20039;-44
2021/08/25 10:47:17;;;;;;;3.55;2.78;;;;;;;19.42;60.59;101149.78;2614608;31;20030;-45
2021/08/25 10:49:48;;;;;;;9.68;3.20;;;;;;;19.23;61.18;101141.19;2614426;36;20038;-44
2021/08/25 10:52:15;;;;;;;6.45;3.40;;;;;;;18.89;63.47;101140.34;2614769;36;20054;-45
2021/08/25 10:54:47;;;;;;;5.00;2.70;;;;;;;19.27;62.68;101123.81;2614738;36;20034;-44
2021/08/25 10:57:20;;;;;;;7.10;3.47;;;;;;;18.97;63.37;101120.44;2616279;31;20061;-44
2021/08/25 10:59:48;;;;;;;5.35;2.78;;;;;;;19.12;62.87;101123.88;2615202;31;20571;-43
2021/08/25 11:02:15;;;;;;;6.60;3.05;;;;;;;18.89;62.74;101117.00;2615175;31;20463;-44
2021/08/25 11:04:43;;;;;;;5.40;3.20;;;;;;;19.11;64.10;101097.06;2614579;36;20038;-44
2021/08/25 11:07:12;;;;;;;6.32;3.53;;;;;;;19.24;63.98;101097.91;2615609;36;20475;-45
2021/08/25 11:09:50;;;;;;;5.75;3.08;;;;;;;19.07;65.87;101090.16;2614804;36;20046;-44
2021/08/25 11:12:19;;;;;;;5.75;3.30;;;;;;;18.77;61.75;101080.72;2615972;31;20570;-46
2021/08/25 11:14:47;;;;;;;6.32;3.00;;;;;;;19.12;63.45;101083.19;2615294;31;20034;-47
2021/08/25 11:17:22;;;;;;;4.07;3.10;;;;;;;19.14;62.42;101078.03;2615994;31;20049;-44
2021/08/25 11:19:50;;;;;;;7.07;3.22;;;;;;;19.16;59.65;101079.72;2614544;31;20038;-46
2021/08/25 11:22:19;;;;;;;5.97;2.85;;;;;;;19.12;60.27;101069.38;2615126;31;20031;-48
2021/08/25 11:24:50;;;;;;;4.55;3.00;;;;;;;19.14;60.18;101076.28;2615574;31;20571;-47
2021/08/25 11:27:30;;;;;;;5.70;2.95;;;;;;;19.31;63.23;101064.09;2614240;36;20080;-48
2021/08/25 11:30:13;;;;;;;5.75;3.45;;;;;;;19.29;61.22;101065.84;2616219;36;20565;-44